Tisul, Russia
Current Conditions -  °F | °C
As of 12:30 PM on Sunday 26 Oct 2014 (Local Time) from UNEE Reporting Station
Overcast Overcast  
Wind Chill: -10°   Ceiling: 6600
Heat Index: -5°   Visibility: 6mi
Dew Point: -10°   Wind: 9mph
Humidity: 68%   Direction: 240°WSW
Pressure: 29.97"   Gusts: NA
Location:  55.76°N, 88.31°E
Report Text: UNEE 260530Z 24004MPS 9999 SCT033 OVC066 M05/M10 Q1015 NOSIGRMK QFE738 23491045
Loading
Personal Weather Stations






























Interactive Weather Map
Tropical Storm Tracking
New forecast layout! Learn more

10-Day Weather Forecast

Advertisements
Track Severe Weather on mobile